Time;durP1;ratioP1;P1;durP2;ratioP2;P2;SDS_P1;SDS_P2;PMS_P1;PMS_P2;Temp;Humidity;BMP_temperature;BMP_pressure;BME280_temperature;BME280_humidity;BME280_pressure;Samples;Min_cycle;Max_cycle;Signal;HPM_P1;HPM_P2
2022/09/11 00:02:11;;;;;;;2.22;1.50;;;;;;;6.25;71.88;96835.59;6246657;28;20519;-60
2022/09/11 00:05:12;;;;;;;1.45;1.20;;;;;;;6.15;72.23;96836.97;6245981;28;20045;-60
2022/09/11 00:08:18;;;;;;;2.65;1.27;;;;;;;6.10;72.11;96828.50;6246013;28;20128;-59
2022/09/11 00:11:22;;;;;;;2.38;1.38;;;;;;;6.13;72.26;96835.34;6246263;28;20510;-59
2022/09/11 00:14:27;;;;;;;1.30;1.10;;;;;;;6.05;71.77;96835.69;6237413;28;20127;-67
2022/09/11 00:17:33;;;;;;;1.85;1.40;;;;;;;5.96;71.61;96834.38;6239448;28;20049;-63
2022/09/11 00:20:35;;;;;;;3.47;1.90;;;;;;;6.01;71.37;96835.00;6237994;28;20049;-59
2022/09/11 00:23:42;;;;;;;1.75;1.10;;;;;;;5.93;71.59;96836.25;6235222;28;20096;-70
2022/09/11 00:26:46;;;;;;;1.40;1.30;;;;;;;5.88;71.92;96851.28;6241302;28;20041;-59
2022/09/11 00:29:48;;;;;;;3.30;1.30;;;;;;;5.88;71.48;96857.34;6238802;28;20057;-59
2022/09/11 00:32:51;;;;;;;2.15;1.10;;;;;;;5.80;71.42;96849.88;6238878;28;20431;-58
2022/09/11 00:35:57;;;;;;;1.52;1.23;;;;;;;5.81;71.58;96864.63;6241719;28;20140;-59
2022/09/11 00:39:06;;;;;;;1.25;1.13;;;;;;;5.76;72.26;96857.91;6231647;28;20033;-59
2022/09/11 00:42:11;;;;;;;1.17;1.08;;;;;;;5.75;72.19;96859.69;6237437;28;20042;-58
2022/09/11 00:45:24;;;;;;;1.33;1.10;;;;;;;5.81;71.80;96864.63;6241420;28;20526;-60
2022/09/11 00:48:30;;;;;;;1.85;1.17;;;;;;;5.83;71.99;96862.81;6240511;28;20187;-59
2022/09/11 00:51:34;;;;;;;1.52;1.42;;;;;;;5.82;71.37;96861.09;6241571;28;20048;-59
2022/09/11 00:55:15;;;;;;;1.35;1.20;;;;;;;5.84;71.21;96861.88;6241554;28;20092;-64
2022/09/11 00:58:25;;;;;;;1.85;1.27;;;;;;;5.79;71.09;96871.66;6249258;28;20049;-60
2022/09/11 01:01:28;;;;;;;1.80;1.20;;;;;;;5.74;70.45;96857.97;6242707;28;21048;-57
2022/09/11 01:04:31;;;;;;;;;;;;;;;5.63;70.84;96871.53;6242353;28;20046;-63
2022/09/11 01:07:35;;;;;;;1.95;1.45;;;;;;;5.62;70.83;96874.22;6240684;28;20298;-63
2022/09/11 01:11:19;;;;;;;1.67;1.27;;;;;;;5.64;70.38;96882.81;6236643;28;20068;-69
2022/09/11 01:14:29;;;;;;;1.30;1.20;;;;;;;5.71;69.96;96878.16;6241532;28;20064;-62
2022/09/11 01:17:59;;;;;;;1.58;1.30;;;;;;;5.88;69.03;96882.63;6238669;28;20038;-62
2022/09/11 01:21:15;;;;;;;1.08;0.98;;;;;;;5.92;68.50;96884.19;6236520;28;20530;-60
2022/09/11 01:24:31;;;;;;;1.13;1.05;;;;;;;5.96;68.57;96888.38;6239356;28;20041;-60
2022/09/11 01:27:53;;;;;;;1.65;1.40;;;;;;;5.98;68.36;96886.53;6240232;28;20559;-60
2022/09/11 01:31:01;;;;;;;2.80;1.17;;;;;;;5.99;68.71;96893.44;6239828;28;20998;-61
2022/09/11 01:34:15;;;;;;;1.13;1.02;;;;;;;5.96;68.77;96893.59;6242494;28;20045;-60
2022/09/11 01:37:52;;;;;;;1.83;1.10;;;;;;;5.99;68.77;96896.06;6239723;28;20049;-60
2022/09/11 01:41:16;;;;;;;1.77;1.27;;;;;;;6.05;68.63;96895.78;6233912;28;20144;-61
2022/09/11 01:44:24;;;;;;;1.75;0.95;;;;;;;6.13;68.05;96911.94;6239313;28;20077;-60
2022/09/11 01:47:27;;;;;;;1.73;1.20;;;;;;;6.18;67.39;96902.13;6238605;28;20677;-60
2022/09/11 01:50:31;;;;;;;1.08;1.08;;;;;;;6.22;67.04;96916.72;6257516;28;20096;-60
2022/09/11 01:53:37;;;;;;;1.25;1.00;;;;;;;6.34;66.52;96910.09;6240213;28;20156;-60
2022/09/11 01:57:07;;;;;;;1.17;0.90;;;;;;;6.48;65.80;96917.25;6240798;28;20091;-59
2022/09/11 02:00:12;;;;;;;1.30;1.00;;;;;;;6.43;65.76;96916.66;6237592;28;20183;-60
2022/09/11 02:03:23;;;;;;;2.70;1.02;;;;;;;6.40;66.30;96929.88;6239747;28;20041;-60
2022/09/11 02:06:34;;;;;;;1.13;0.95;;;;;;;6.38;66.82;96934.31;6243011;28;20041;-61
2022/09/11 02:09:46;;;;;;;2.00;0.93;;;;;;;6.50;66.66;96936.34;6239095;28;20057;-60
2022/09/11 02:13:11;;;;;;;1.00;0.93;;;;;;;6.54;66.54;96930.06;6239992;28;20041;-60
2022/09/11 02:16:18;;;;;;;1.38;1.13;;;;;;;6.67;66.50;96939.00;6239275;28;20395;-61
2022/09/11 02:19:26;;;;;;;2.95;1.00;;;;;;;6.77;65.72;96939.41;6238404;28;20513;-59
2022/09/11 02:22:32;;;;;;;2.17;1.00;;;;;;;6.85;65.65;96947.75;6239123;28;20140;-59
2022/09/11 02:25:36;;;;;;;2.28;0.88;;;;;;;6.92;65.65;96943.03;6243416;28;20057;-61
2022/09/11 02:28:37;;;;;;;1.08;1.00;;;;;;;7.01;65.26;96947.81;6244548;28;20056;-61
2022/09/11 02:31:41;;;;;;;2.67;0.85;;;;;;;7.10;65.25;96949.97;6242118;28;20037;-61
2022/09/11 02:34:45;;;;;;;1.85;1.08;;;;;;;7.15;64.48;96947.97;6245753;28;20033;-60
2022/09/11 02:37:59;;;;;;;1.10;1.00;;;;;;;7.26;64.51;96957.06;6242697;28;20048;-61
2022/09/11 02:41:22;;;;;;;2.38;1.55;;;;;;;7.29;64.65;96962.97;6240585;28;20418;-62
2022/09/11 02:44:43;;;;;;;2.15;1.50;;;;;;;7.43;63.59;96957.91;6241815;28;20046;-61
2022/09/11 02:48:12;;;;;;;2.83;1.58;;;;;;;7.45;64.04;96960.44;6242856;28;20522;-61
2022/09/11 02:51:31;;;;;;;1.65;1.55;;;;;;;7.53;64.22;96968.75;6245192;28;20423;-60
2022/09/11 02:54:50;;;;;;;2.83;1.50;;;;;;;7.70;63.58;96974.88;6237975;28;20049;-61
2022/09/11 02:58:26;;;;;;;3.00;1.70;;;;;;;7.87;62.81;96980.13;6246372;28;20052;-60
2022/09/11 03:01:28;;;;;;;2.53;1.48;;;;;;;7.88;62.87;96979.19;6243970;28;20148;-60
2022/09/11 03:04:33;;;;;;;2.45;1.60;;;;;;;7.94;62.29;96980.63;6247574;28;20046;-60
2022/09/11 03:07:35;;;;;;;1.88;1.42;;;;;;;7.95;62.38;96980.53;6246982;28;20038;-60
2022/09/11 03:10:39;;;;;;;1.88;1.45;;;;;;;8.05;62.07;96988.78;6227665;28;20099;-60
2022/09/11 03:13:41;;;;;;;2.55;1.77;;;;;;;8.14;61.89;96987.44;6244917;28;20053;-60
2022/09/11 03:16:42;;;;;;;1.70;1.48;;;;;;;8.27;61.88;96991.94;6243818;28;20176;-60
2022/09/11 03:19:46;;;;;;;3.40;1.65;;;;;;;8.41;61.55;96991.25;6243118;28;20052;-60
2022/09/11 03:22:54;;;;;;;2.60;1.70;;;;;;;8.59;61.29;96994.63;6244446;28;20054;-60
2022/09/11 03:25:59;;;;;;;2.20;1.90;;;;;;;8.77;60.69;96996.25;6243958;28;20411;-60
2022/09/11 03:29:03;;;;;;;2.28;1.60;;;;;;;8.85;60.41;97001.03;6242863;28;20128;-60
2022/09/11 03:32:08;;;;;;;2.50;1.67;;;;;;;8.98;60.46;97002.06;6244126;28;20045;-61
2022/09/11 03:35:10;;;;;;;1.60;1.30;;;;;;;9.20;60.31;97000.84;6239586;28;20048;-60
2022/09/11 03:38:14;;;;;;;2.25;1.35;;;;;;;9.42;59.43;96988.13;6240402;28;20041;-61
2022/09/11 03:41:16;;;;;;;2.35;1.27;;;;;;;9.62;59.18;97001.88;6241641;28;20537;-60
2022/09/11 03:44:20;;;;;;;1.55;0.95;;;;;;;9.80;58.43;97005.22;6242717;28;20049;-61
2022/09/11 03:47:24;;;;;;;2.25;1.10;;;;;;;9.81;57.63;97002.50;6243805;28;20037;-61
2022/09/11 03:50:30;;;;;;;2.50;1.60;;;;;;;9.75;57.53;97007.28;6243954;28;20045;-61
2022/09/11 03:53:32;;;;;;;1.95;1.23;;;;;;;9.81;56.85;97007.75;6241777;28;20041;-60
2022/09/11 03:56:36;;;;;;;1.05;0.90;;;;;;;9.80;56.29;97013.97;6242498;28;20061;-61
2022/09/11 03:59:38;;;;;;;0.95;0.70;;;;;;;9.93;56.17;97021.09;6243333;28;20172;-60
2022/09/11 04:02:40;;;;;;;1.30;0.90;;;;;;;10.21;54.45;97021.13;6241105;28;20407;-62
2022/09/11 04:05:43;;;;;;;1.58;0.88;;;;;;;10.38;53.57;97021.91;6243333;28;20049;-61
2022/09/11 04:08:45;;;;;;;1.87;0.77;;;;;;;10.45;52.98;97023.22;6243233;28;20511;-61
2022/09/11 04:11:46;;;;;;;0.93;0.60;;;;;;;10.53;52.26;97020.94;6242815;28;20045;-61
2022/09/11 04:14:51;;;;;;;1.20;0.70;;;;;;;10.71;51.16;97017.19;6245991;28;20430;-60
2022/09/11 04:17:52;;;;;;;1.52;0.68;;;;;;;10.50;51.68;97021.13;6241425;28;20049;-61
2022/09/11 04:20:54;;;;;;;1.42;1.00;;;;;;;10.64;50.85;97026.38;6237674;28;20053;-61
2022/09/11 04:23:59;;;;;;;1.55;0.80;;;;;;;10.68;51.08;97027.91;6241417;28;20053;-60
2022/09/11 04:27:01;;;;;;;1.00;0.60;;;;;;;11.06;49.70;97024.59;6241324;28;20053;-62
2022/09/11 04:30:04;;;;;;;0.57;0.45;;;;;;;10.85;48.29;97031.25;6243844;28;20050;-62
2022/09/11 04:33:05;;;;;;;0.40;0.40;;;;;;;10.77;48.41;97032.56;6242154;28;20195;-61
2022/09/11 04:36:12;;;;;;;0.95;0.60;;;;;;;10.52;49.39;97046.41;6240165;28;20825;-60
2022/09/11 04:39:19;;;;;;;1.02;0.60;;;;;;;10.66;48.83;97042.94;6243020;28;20038;-61
2022/09/11 04:42:20;;;;;;;;;;;;;;;11.09;47.05;97047.28;6242499;28;20053;-60
2022/09/11 04:45:22;;;;;;;0.98;0.60;;;;;;;10.91;46.88;97044.03;6242258;28;20019;-61
2022/09/11 04:48:23;;;;;;;0.95;0.70;;;;;;;11.17;45.88;97051.09;6241590;28;20096;-62
2022/09/11 04:51:30;;;;;;;1.17;0.65;;;;;;;11.50;44.87;97052.50;6242410;28;20045;-59
2022/09/11 04:54:35;;;;;;;0.82;0.50;;;;;;;11.57;43.66;97056.41;6241635;28;20037;-60
2022/09/11 04:57:39;;;;;;;2.03;0.63;;;;;;;11.93;43.51;97054.09;6240796;28;20049;-60
2022/09/11 05:00:40;;;;;;;0.73;0.40;;;;;;;12.39;40.91;97054.44;6239666;28;20041;-61
2022/09/11 05:03:44;;;;;;;0.30;0.30;;;;;;;12.45;40.48;97053.16;6240346;28;20534;-61
2022/09/11 05:06:49;;;;;;;0.55;0.40;;;;;;;12.50;39.73;97056.31;6244569;28;20041;-60
2022/09/11 05:09:53;;;;;;;0.40;0.30;;;;;;;12.28;40.44;97064.88;6244300;28;20164;-60
2022/09/11 05:12:55;;;;;;;0.38;0.28;;;;;;;12.28;40.96;97072.78;6244591;28;20523;-62
2022/09/11 05:16:03;;;;;;;0.50;0.30;;;;;;;12.34;41.10;97067.09;6244569;28;20119;-62
2022/09/11 05:19:09;;;;;;;0.30;0.30;;;;;;;12.62;41.16;97067.81;6244247;28;20049;-61
2022/09/11 05:22:10;;;;;;;;;;;;;;;13.33;38.67;97077.72;6244232;28;20041;-60
2022/09/11 05:25:12;;;;;;;0.30;0.30;;;;;;;13.02;39.13;97079.91;6244221;28;20064;-62
2022/09/11 05:28:16;;;;;;;1.30;0.40;;;;;;;12.91;39.23;97081.59;6241108;28;20053;-61
2022/09/11 05:31:17;;;;;;;0.55;0.38;;;;;;;12.91;39.49;97082.47;6241244;28;20041;-60
2022/09/11 05:34:21;;;;;;;;;;;;;;;13.39;38.22;97087.84;6242864;28;20041;-62
2022/09/11 05:37:23;;;;;;;0.30;0.30;;;;;;;13.41;37.64;97091.22;6239729;28;19927;-62
2022/09/11 05:40:29;;;;;;;0.35;0.25;;;;;;;13.21;37.26;97089.16;6240508;28;20100;-61
2022/09/11 05:43:34;;;;;;;0.70;0.25;;;;;;;13.12;36.53;97089.81;6239462;28;20167;-61
2022/09/11 05:46:35;;;;;;;0.75;0.40;;;;;;;13.20;35.99;97088.31;6241118;28;20149;-62
2022/09/11 05:49:36;;;;;;;0.20;0.20;;;;;;;13.39;35.62;97090.50;6239580;28;20045;-62
2022/09/11 05:52:38;;;;;;;0.20;0.20;;;;;;;13.36;35.71;97093.38;6241428;28;20049;-60
2022/09/11 05:55:39;;;;;;;0.82;0.38;;;;;;;13.16;35.52;97099.19;6240436;28;20046;-60
2022/09/11 05:58:45;;;;;;;0.30;0.25;;;;;;;12.75;36.02;97100.34;6236832;28;20467;-60
2022/09/11 06:01:46;;;;;;;0.63;0.30;;;;;;;12.68;36.80;97097.28;6240683;28;20174;-61
2022/09/11 06:04:47;;;;;;;0.20;0.20;;;;;;;12.75;36.70;97097.69;6240896;28;20041;-61
2022/09/11 06:07:50;;;;;;;1.05;0.30;;;;;;;12.77;35.99;97093.16;6240733;28;20041;-60
2022/09/11 06:10:51;;;;;;;0.30;0.30;;;;;;;12.50;36.99;97096.75;6240416;28;20069;-61
2022/09/11 06:13:55;;;;;;;;;;;;;;;12.73;37.70;97096.94;6240119;28;20041;-61
2022/09/11 06:17:00;;;;;;;0.70;0.40;;;;;;;13.00;36.57;97094.19;6239584;28;20394;-62
2022/09/11 06:20:02;;;;;;;0.40;0.30;;;;;;;13.12;36.50;97089.81;6241213;28;20041;-61
2022/09/11 06:23:05;;;;;;;0.75;0.70;;;;;;;13.27;36.08;97094.00;6237430;28;20954;-62
2022/09/11 06:26:12;;;;;;;1.60;0.60;;;;;;;13.35;36.06;97081.09;6241031;28;20533;-61
2022/09/11 06:29:15;;;;;;;0.70;0.60;;;;;;;13.63;35.83;97084.38;6240714;28;20089;-62
2022/09/11 06:32:16;;;;;;;1.33;0.52;;;;;;;13.62;35.94;97086.16;6239288;28;20065;-62
2022/09/11 06:35:26;;;;;;;0.75;0.47;;;;;;;13.32;36.27;97085.75;6241065;28;20052;-62
2022/09/11 06:38:27;;;;;;;0.75;0.55;;;;;;;13.03;36.80;97084.22;6241255;28;20073;-61
2022/09/11 06:41:32;;;;;;;1.13;0.70;;;;;;;12.82;37.42;97083.09;6237700;28;20052;-68
2022/09/11 06:44:35;;;;;;;0.68;0.50;;;;;;;12.67;38.17;97078.91;6240183;28;20555;-63
2022/09/11 06:47:37;;;;;;;0.32;0.32;;;;;;;12.78;38.12;97086.91;6239113;28;20048;-61
2022/09/11 06:50:39;;;;;;;0.30;0.30;;;;;;;12.88;37.84;97082.69;6240991;28;20056;-62
2022/09/11 06:53:41;;;;;;;0.82;0.60;;;;;;;12.94;38.11;97082.25;6238735;28;20379;-63
2022/09/11 06:56:45;;;;;;;1.25;0.50;;;;;;;12.97;38.28;97076.75;6241236;28;20049;-62
2022/09/11 06:59:49;;;;;;;0.93;0.40;;;;;;;13.00;37.70;97079.16;6241045;28;20060;-61
2022/09/11 07:02:53;;;;;;;0.70;0.60;;;;;;;13.04;37.65;97077.97;6237681;28;20041;-61
2022/09/11 07:05:55;;;;;;;0.85;0.50;;;;;;;13.13;37.64;97075.63;6239325;28;20052;-62
2022/09/11 07:09:01;;;;;;;0.40;0.40;;;;;;;13.29;37.56;97070.97;6242694;28;20049;-61
2022/09/11 07:12:04;;;;;;;2.05;0.90;;;;;;;13.51;36.92;97074.69;6242452;28;20085;-61
2022/09/11 07:15:06;;;;;;;0.88;0.80;;;;;;;13.31;37.22;97074.34;6242621;28;20868;-62
2022/09/11 07:18:08;;;;;;;1.05;0.73;;;;;;;13.14;37.31;97074.69;6236010;28;20048;-62
2022/09/11 07:21:11;;;;;;;0.60;0.52;;;;;;;12.80;37.56;97069.19;6242015;28;20045;-61
2022/09/11 07:24:19;;;;;;;1.20;0.60;;;;;;;12.60;37.92;97057.38;6243703;28;20530;-61
2022/09/11 07:27:22;;;;;;;0.95;0.63;;;;;;;12.92;37.46;97063.03;6241862;28;20053;-61
2022/09/11 07:30:23;;;;;;;0.50;0.50;;;;;;;13.36;37.10;97064.28;6241626;28;20107;-62
2022/09/11 07:33:27;;;;;;;1.20;0.60;;;;;;;13.49;36.91;97061.59;6240960;28;20041;-62
2022/09/11 07:36:31;;;;;;;0.60;0.50;;;;;;;13.28;37.22;97064.00;6240437;28;20053;-61
2022/09/11 07:39:35;;;;;;;1.42;0.90;;;;;;;13.17;37.65;97063.91;6241805;28;20053;-62
2022/09/11 07:42:39;;;;;;;2.30;1.50;;;;;;;12.89;38.50;97073.81;6240528;28;20053;-62
2022/09/11 07:45:44;;;;;;;1.67;1.02;;;;;;;12.80;39.05;97069.19;6241560;28;20507;-62
2022/09/11 07:48:46;;;;;;;0.80;0.70;;;;;;;12.95;38.94;97075.16;6242319;28;20758;-62
2022/09/11 07:51:47;;;;;;;1.08;0.80;;;;;;;13.14;38.28;97066.78;6241501;28;20042;-61
2022/09/11 07:54:49;;;;;;;0.88;0.70;;;;;;;13.28;38.00;97065.81;6238667;28;20454;-61
2022/09/11 07:57:53;;;;;;;0.93;0.77;;;;;;;13.45;37.97;97076.84;6242759;28;20050;-61
2022/09/11 08:01:01;;;;;;;1.52;0.82;;;;;;;13.63;37.33;97073.78;6240710;28;20119;-63
2022/09/11 08:04:08;;;;;;;0.75;0.75;;;;;;;13.51;37.40;97072.06;6239065;28;20423;-71
2022/09/11 08:07:10;;;;;;;0.57;0.55;;;;;;;13.25;37.92;97069.50;6242504;28;20503;-62
2022/09/11 08:10:11;;;;;;;0.77;0.60;;;;;;;13.11;38.51;97064.34;6243147;28;20053;-62
2022/09/11 08:13:13;;;;;;;1.45;0.63;;;;;;;12.87;39.23;97075.69;6242503;28;20604;-61
2022/09/11 08:16:15;;;;;;;1.13;0.70;;;;;;;12.82;39.03;97067.25;6241794;28;20065;-62
2022/09/11 08:19:19;;;;;;;1.38;0.95;;;;;;;12.72;39.02;97066.22;6242537;28;20041;-63
2022/09/11 08:22:23;;;;;;;0.88;0.88;;;;;;;12.64;39.49;97068.56;6242729;28;20053;-63
2022/09/11 08:25:27;;;;;;;1.10;0.80;;;;;;;12.87;39.15;97069.56;6242962;28;20045;-61
2022/09/11 08:28:33;;;;;;;1.05;0.95;;;;;;;13.13;39.10;97080.91;6242619;28;20033;-62
2022/09/11 08:31:35;;;;;;;1.07;0.90;;;;;;;13.16;38.83;97073.66;6243046;28;20640;-62
2022/09/11 08:34:38;;;;;;;1.05;0.95;;;;;;;13.14;38.85;97070.25;6243084;28;20054;-61
2022/09/11 08:37:40;;;;;;;;;;;;;;;13.39;38.64;97077.28;6242540;28;20068;-61
2022/09/11 08:40:43;;;;;;;1.50;1.02;;;;;;;13.12;38.90;97064.22;6241282;28;19925;-61
2022/09/11 08:43:52;;;;;;;1.25;0.90;;;;;;;13.21;38.94;97073.28;6242396;28;20041;-62
2022/09/11 08:47:05;;;;;;;1.00;0.75;;;;;;;13.39;38.53;97069.34;6241963;28;20537;-62
2022/09/11 08:50:33;;;;;;;1.90;0.90;;;;;;;13.55;38.14;97070.88;6241277;28;20049;-61
2022/09/11 08:53:34;;;;;;;0.85;0.80;;;;;;;13.53;38.30;97072.78;6237880;28;20052;-61
2022/09/11 08:56:42;;;;;;;1.00;0.90;;;;;;;13.60;37.90;97084.59;6241206;28;20045;-61
2022/09/11 09:00:13;;;;;;;1.10;1.00;;;;;;;13.47;37.97;97080.22;6241960;28;20037;-61
2022/09/11 09:03:52;;;;;;;1.08;0.98;;;;;;;13.52;38.35;97077.22;6241895;28;20059;-63
2022/09/11 09:06:59;;;;;;;1.00;0.93;;;;;;;13.39;38.10;97072.00;6240819;28;20045;-61
2022/09/11 09:10:14;;;;;;;1.23;0.85;;;;;;;13.37;38.67;97079.19;6241955;28;20049;-63
2022/09/11 09:13:52;;;;;;;0.60;0.60;;;;;;;13.44;38.47;97088.34;6242227;28;20418;-61
2022/09/11 09:17:02;;;;;;;3.92;1.00;;;;;;;13.50;38.31;97078.28;6241007;28;20136;-61
2022/09/11 09:20:22;;;;;;;1.00;0.68;;;;;;;13.70;37.92;97077.66;6238580;28;20045;-61
2022/09/11 09:23:46;;;;;;;1.17;0.90;;;;;;;13.73;38.13;97081.88;6239965;28;20820;-61
2022/09/11 09:26:58;;;;;;;1.27;0.70;;;;;;;13.88;37.84;97083.38;6242124;28;20049;-61
2022/09/11 09:30:05;;;;;;;2.83;1.10;;;;;;;13.72;38.17;97080.19;6236643;28;20151;-61
2022/09/11 09:33:12;;;;;;;1.55;0.88;;;;;;;13.74;38.20;97080.94;6240073;28;20050;-61
2022/09/11 09:36:39;;;;;;;1.25;0.80;;;;;;;14.06;37.90;97081.16;6238345;28;20041;-63
2022/09/11 09:39:45;;;;;;;1.33;0.98;;;;;;;14.67;36.99;97083.59;6215099;28;20049;-63
2022/09/11 09:43:09;;;;;;;1.40;1.00;;;;;;;14.94;36.19;97084.03;6241243;28;20171;-61
2022/09/11 09:46:20;;;;;;;;;;;;;;;15.23;36.30;97087.03;6239979;28;20136;-61
2022/09/11 09:49:28;;;;;;;2.70;0.90;;;;;;;15.43;36.00;97097.84;6241593;28;19927;-63
2022/09/11 09:52:34;;;;;;;2.13;0.90;;;;;;;15.49;35.01;97090.25;6241139;28;20060;-62
2022/09/11 09:55:39;;;;;;;1.00;0.80;;;;;;;15.30;34.96;97090.03;6240995;28;20045;-62
2022/09/11 09:59:11;;;;;;;0.90;0.80;;;;;;;15.23;35.55;97094.16;6240663;28;20515;-63
2022/09/11 10:02:49;;;;;;;2.40;1.50;;;;;;;15.21;35.41;97096.94;6232735;28;20319;-62
2022/09/11 10:05:53;;;;;;;1.55;0.98;;;;;;;14.98;35.69;97087.31;6229110;28;20073;-61
2022/09/11 10:08:55;;;;;;;2.60;1.25;;;;;;;14.93;36.02;97092.13;6239883;28;20042;-61
2022/09/11 10:12:02;;;;;;;0.93;0.80;;;;;;;14.90;36.25;97090.56;6241730;28;20167;-61
2022/09/11 10:15:21;;;;;;;1.20;1.00;;;;;;;15.11;36.30;97080.06;6238422;28;20042;-62
2022/09/11 10:18:45;;;;;;;1.58;1.27;;;;;;;15.92;34.79;97091.22;6236297;28;20426;-61
2022/09/11 10:21:46;;;;;;;0.85;0.80;;;;;;;17.41;32.80;97084.59;6239096;28;20487;-61
2022/09/11 10:25:13;;;;;;;2.60;0.90;;;;;;;19.27;30.11;97084.19;6240186;28;20057;-64
2022/09/11 10:28:37;;;;;;;2.15;1.00;;;;;;;22.10;26.59;97088.25;6237801;28;20107;-63
2022/09/11 10:31:39;;;;;;;;;;;;;;;24.55;24.52;97091.06;6241254;28;20144;-61
2022/09/11 10:34:41;;;;;;;1.05;0.30;;;;;;;25.26;22.52;97078.06;6240424;28;20094;-60
2022/09/11 10:37:45;;;;;;;1.20;0.47;;;;;;;26.04;21.61;97097.25;6238252;28;20045;-67
2022/09/11 10:41:20;;;;;;;2.22;0.80;;;;;;;27.16;20.32;97097.41;6238080;28;20041;-65
2022/09/11 10:44:23;;;;;;;1.48;1.13;;;;;;;26.66;20.83;97091.19;6246570;28;20786;-64
2022/09/11 10:47:31;;;;;;;2.45;1.05;;;;;;;24.80;22.28;97091.69;6243824;28;20545;-66
2022/09/11 10:50:35;;;;;;;1.35;0.80;;;;;;;23.13;24.47;97090.38;6237213;28;20041;-65
2022/09/11 10:54:06;;;;;;;2.63;1.10;;;;;;;21.80;26.02;97091.56;6245084;28;20053;-65
2022/09/11 10:57:24;;;;;;;1.35;1.00;;;;;;;20.92;26.69;97087.38;6245556;28;20156;-65
2022/09/11 11:00:30;;;;;;;1.00;0.70;;;;;;;20.85;27.00;97080.97;6247263;28;20045;-65
2022/09/11 11:03:40;;;;;;;1.40;0.90;;;;;;;22.73;25.22;97084.09;6245249;28;20037;-64
2022/09/11 11:06:48;;;;;;;1.17;0.98;;;;;;;24.26;23.32;97081.00;6243779;28;20131;-65
2022/09/11 11:09:58;;;;;;;1.73;0.65;;;;;;;25.88;21.06;97093.78;6244569;28;20061;-65
2022/09/11 11:13:01;;;;;;;0.85;0.60;;;;;;;25.12;21.67;97086.97;6234181;28;20092;-67
2022/09/11 11:16:18;;;;;;;0.95;0.80;;;;;;;23.18;23.79;97101.41;6241992;28;20083;-65
2022/09/11 11:19:52;;;;;;;2.28;0.50;;;;;;;21.19;26.29;97093.53;6241906;28;20069;-66
2022/09/11 11:23:08;;;;;;;1.05;0.80;;;;;;;19.63;27.82;97088.78;6237716;28;20061;-65
2022/09/11 11:26:45;;;;;;;2.83;1.50;;;;;;;18.65;29.75;97095.50;6241230;28;20567;-65
2022/09/11 11:30:14;;;;;;;2.60;1.40;;;;;;;17.71;30.85;97088.97;6242915;28;20124;-65
2022/09/11 11:33:43;;;;;;;1.48;1.10;;;;;;;17.22;31.69;97089.88;6236068;28;20052;-67
2022/09/11 11:36:56;;;;;;;1.13;0.85;;;;;;;16.87;32.10;97091.16;6237181;28;20053;-68
2022/09/11 11:40:22;;;;;;;2.08;0.98;;;;;;;16.91;32.49;97095.22;6243176;28;20060;-66
2022/09/11 11:43:31;;;;;;;1.42;0.52;;;;;;;17.01;32.18;97096.09;6241526;28;20045;-70
2022/09/11 11:46:44;;;;;;;0.70;0.52;;;;;;;16.86;32.51;97096.59;6242382;28;20053;-69
2022/09/11 11:50:23;;;;;;;0.93;0.63;;;;;;;16.43;33.28;97090.44;6238919;28;20495;-68
2022/09/11 11:53:39;;;;;;;1.23;0.85;;;;;;;16.09;33.65;97092.47;6243914;28;20140;-67
2022/09/11 11:56:54;;;;;;;0.70;0.60;;;;;;;15.78;34.47;97089.69;6241930;28;20049;-66
2022/09/11 12:00:16;;;;;;;0.80;0.70;;;;;;;16.02;34.09;97086.84;6241974;28;20412;-69
2022/09/11 12:03:28;;;;;;;0.95;0.80;;;;;;;15.99;33.93;97091.53;6237601;28;20038;-68
2022/09/11 12:06:34;;;;;;;1.25;0.73;;;;;;;16.33;33.23;97089.53;6242918;28;20049;-66
2022/09/11 12:09:37;;;;;;;0.70;0.57;;;;;;;17.23;32.08;97094.19;6240288;28;20442;-67
2022/09/11 12:12:49;;;;;;;0.82;0.50;;;;;;;17.28;31.77;97091.97;6244523;28;20072;-65
2022/09/11 12:16:10;;;;;;;1.00;0.82;;;;;;;16.93;32.19;97095.06;6242683;28;20060;-67
2022/09/11 12:19:11;;;;;;;2.45;0.68;;;;;;;16.26;33.04;97101.66;6240881;28;20052;-66
2022/09/11 12:22:37;;;;;;;1.98;1.20;;;;;;;15.83;33.93;97105.25;6242853;28;20060;-65
2022/09/11 12:26:02;;;;;;;1.58;0.82;;;;;;;15.56;34.36;97117.09;6243630;28;20056;-66
2022/09/11 12:29:14;;;;;;;1.73;0.60;;;;;;;15.33;35.02;97110.16;6238419;28;20041;-66
2022/09/11 12:32:27;;;;;;;0.73;0.60;;;;;;;15.06;35.23;97108.75;6240946;28;20399;-66
2022/09/11 12:35:45;;;;;;;1.92;0.85;;;;;;;14.77;36.08;97114.50;6242650;28;20426;-64
2022/09/11 12:39:07;;;;;;;2.60;1.70;;;;;;;14.62;36.40;97115.72;6241926;28;20041;-64
2022/09/11 12:42:30;;;;;;;2.67;1.25;;;;;;;14.51;37.24;97115.66;6241451;28;20805;-67
2022/09/11 12:45:40;;;;;;;1.90;0.80;;;;;;;14.35;37.57;97114.22;6240165;28;20503;-66
2022/09/11 12:48:53;;;;;;;1.00;0.80;;;;;;;14.20;38.34;97115.34;6238312;28;20516;-66
2022/09/11 12:52:00;;;;;;;2.05;0.80;;;;;;;14.01;38.77;97115.91;6240744;28;20041;-66
2022/09/11 12:55:22;;;;;;;1.80;1.20;;;;;;;13.98;39.32;97120.56;6231916;28;20506;-72
2022/09/11 12:58:42;;;;;;;1.92;1.02;;;;;;;13.80;39.72;97123.63;6237548;28;20056;-66
2022/09/11 13:01:49;;;;;;;2.42;0.75;;;;;;;13.64;39.70;97123.06;6237570;28;20034;-65
2022/09/11 13:04:54;;;;;;;2.78;1.10;;;;;;;13.60;39.99;97117.16;6237424;28;20034;-64
2022/09/11 13:07:59;;;;;;;2.13;0.90;;;;;;;13.52;39.88;97118.69;6238359;28;20045;-64
2022/09/11 13:11:39;;;;;;;2.05;1.65;;;;;;;13.33;40.49;97124.44;6241638;28;20042;-65
2022/09/11 13:14:46;;;;;;;2.20;1.27;;;;;;;13.22;40.91;97119.91;6240831;28;20053;-65
2022/09/11 13:17:50;;;;;;;3.50;1.23;;;;;;;13.07;41.49;97123.63;6239894;28;20049;-65
2022/09/11 13:20:57;;;;;;;3.47;1.33;;;;;;;12.94;42.11;97124.50;6242004;28;20047;-65
2022/09/11 13:23:59;;;;;;;1.73;1.10;;;;;;;12.85;41.95;97125.16;6238336;28;20545;-65
2022/09/11 13:27:15;;;;;;;2.20;1.00;;;;;;;12.74;41.82;97135.63;6238566;28;20430;-66
2022/09/11 13:30:21;;;;;;;1.58;0.98;;;;;;;12.61;42.34;97134.78;6239709;28;20081;-66
2022/09/11 13:33:29;;;;;;;1.35;0.90;;;;;;;12.31;42.71;97130.63;6232092;28;20071;-65
2022/09/11 13:36:33;;;;;;;2.13;1.25;;;;;;;12.27;43.32;97139.72;6239773;28;20060;-66
2022/09/11 13:39:39;;;;;;;1.42;1.08;;;;;;;12.32;43.48;97137.63;6233195;28;20045;-64
2022/09/11 13:42:44;;;;;;;2.35;1.17;;;;;;;12.40;43.61;97151.13;6230293;28;20045;-65
2022/09/11 13:45:46;;;;;;;2.15;1.23;;;;;;;12.42;43.71;97143.94;6224858;28;20537;-64
2022/09/11 13:48:55;;;;;;;3.55;1.58;;;;;;;12.33;44.02;97155.13;6235476;28;20037;-65
2022/09/11 13:52:00;;;;;;;3.38;1.92;;;;;;;12.07;44.43;97143.69;6233684;28;20617;-66
2022/09/11 13:55:11;;;;;;;2.55;1.70;;;;;;;11.83;45.15;97151.38;6231386;28;20071;-66
2022/09/11 13:58:25;;;;;;;3.38;1.80;;;;;;;11.72;45.50;97153.88;6231911;28;20045;-64
2022/09/11 14:01:26;;;;;;;2.92;1.85;;;;;;;11.46;46.11;97165.16;6227154;28;20172;-67
2022/09/11 14:04:38;;;;;;;2.47;1.98;;;;;;;11.24;46.99;97164.84;6235753;28;20135;-64
2022/09/11 14:07:55;;;;;;;2.63;1.63;;;;;;;10.96;47.85;97165.69;6233617;28;20526;-65
2022/09/11 14:11:09;;;;;;;2.90;1.42;;;;;;;10.67;48.44;97170.09;6236100;28;20447;-65
2022/09/11 14:14:12;;;;;;;;;;;;;;;10.61;48.49;97166.03;6238040;28;20531;-64
2022/09/11 14:17:19;;;;;;;2.15;1.48;;;;;;;10.48;49.30;97165.09;6234686;28;19918;-64
2022/09/11 14:20:23;;;;;;;2.13;1.60;;;;;;;10.45;49.49;97166.13;6234941;28;20049;-65
2022/09/11 14:23:39;;;;;;;2.47;1.70;;;;;;;10.20;50.15;97166.69;6245041;28;20510;-66
2022/09/11 14:26:43;;;;;;;3.22;1.90;;;;;;;10.08;50.69;97177.94;6238617;28;20053;-66
2022/09/11 14:29:54;;;;;;;1.60;1.45;;;;;;;9.86;51.46;97179.16;6238029;28;20050;-66
2022/09/11 14:33:21;;;;;;;2.10;1.80;;;;;;;9.78;51.77;97185.78;6241387;28;20199;-65
2022/09/11 14:36:22;;;;;;;4.30;2.30;;;;;;;9.51;52.55;97180.28;6240075;28;20146;-65
2022/09/11 14:39:40;;;;;;;2.53;1.77;;;;;;;9.35;53.10;97190.81;6237404;28;20037;-65
2022/09/11 14:42:50;;;;;;;3.50;2.33;;;;;;;9.24;53.44;97195.81;6245562;28;20041;-65
2022/09/11 14:45:53;;;;;;;3.13;2.65;;;;;;;9.12;54.04;97198.16;6247151;28;20049;-65
2022/09/11 14:48:58;;;;;;;3.15;2.85;;;;;;;9.11;54.19;97195.59;6240439;28;20514;-65
2022/09/11 14:52:00;;;;;;;2.80;2.25;;;;;;;8.95;54.30;97193.81;6237178;28;20152;-66
2022/09/11 14:55:05;;;;;;;2.88;2.28;;;;;;;8.89;54.78;97207.28;6247856;28;20041;-65
2022/09/11 14:58:09;;;;;;;5.15;2.60;;;;;;;8.79;55.00;97206.03;6247745;28;20041;-65